Time;durP1;ratioP1;P1;durP2;ratioP2;P2;SDS_P1;SDS_P2;PMS_P1;PMS_P2;Temp;Humidity;BMP_temperature;BMP_pressure;BME280_temperature;BME280_humidity;BME280_pressure;Samples;Min_cycle;Max_cycle;Signal;HPM_P1;HPM_P2
2021/03/26 00:01:58;;;;;;;133.17;70.73;;;;;;;4.62;63.34;100664.09;115323;1199;103023;-78
2021/03/26 00:04:25;;;;;;;127.17;68.23;;;;;;;4.60;63.38;100665.83;115368;1199;103115;-78
2021/03/26 00:06:53;;;;;;;125.50;67.80;;;;;;;4.57;63.44;100666.70;115276;1195;103114;-78
2021/03/26 00:09:24;;;;;;;128.60;69.57;;;;;;;4.53;63.14;100670.16;115628;1196;103025;-78
2021/03/26 00:11:56;;;;;;;133.37;70.90;;;;;;;4.49;63.61;100678.77;115353;1197;103577;-78
2021/03/26 00:14:23;;;;;;;135.60;71.33;;;;;;;4.46;63.73;100673.58;115302;1199;103110;-78
2021/03/26 00:16:50;;;;;;;134.23;72.10;;;;;;;4.42;63.88;100671.87;115494;1197;103088;-79
2021/03/26 00:19:17;;;;;;;139.57;73.17;;;;;;;4.37;63.34;100671.88;115256;1198;103437;-78
2021/03/26 00:21:45;;;;;;;135.97;70.03;;;;;;;4.33;63.95;100677.91;115281;1200;102969;-77
2021/03/26 00:24:12;;;;;;;133.30;72.13;;;;;;;4.30;64.04;100672.72;115505;1196;103015;-77
2021/03/26 00:26:40;;;;;;;128.27;70.87;;;;;;;4.28;64.42;100669.28;115290;1198;103030;-78
2021/03/26 00:29:21;;;;;;;132.13;69.27;;;;;;;4.26;64.27;100673.59;115332;1199;103050;-78
2021/03/26 00:31:49;;;;;;;133.10;71.13;;;;;;;4.23;64.37;100673.59;115380;1199;103645;-78
2021/03/26 00:34:18;;;;;;;130.73;71.33;;;;;;;4.21;64.56;100671.01;115617;1197;101863;-77
2021/03/26 00:36:46;;;;;;;141.80;75.43;;;;;;;4.17;64.59;100666.71;115346;1199;103410;-77
2021/03/26 00:39:13;;;;;;;134.77;72.73;;;;;;;4.15;64.91;100673.59;115348;1199;103091;-78
2021/03/26 00:41:40;;;;;;;137.07;71.33;;;;;;;4.13;64.50;100670.16;115286;1199;103136;-78
2021/03/26 00:44:07;;;;;;;131.20;69.00;;;;;;;4.14;64.57;100668.44;115352;1199;103001;-78
2021/03/26 00:46:36;;;;;;;129.60;68.80;;;;;;;4.14;64.66;100664.14;115352;1198;103056;-78
2021/03/26 00:49:05;;;;;;;134.37;70.37;;;;;;;4.15;64.61;100658.11;115375;1199;103133;-79
2021/03/26 00:51:33;;;;;;;128.60;69.60;;;;;;;4.16;64.86;100670.16;115376;1199;103024;-78
2021/03/26 00:54:02;;;;;;;138.27;71.70;;;;;;;4.16;64.86;100664.99;115394;1199;103480;-79
2021/03/26 00:56:29;;;;;;;133.67;70.23;;;;;;;4.17;64.64;100665.85;115333;1196;103127;-79
2021/03/26 00:58:56;;;;;;;133.50;71.17;;;;;;;4.15;64.63;100663.27;115349;1196;103085;-79
2021/03/26 01:01:25;;;;;;;142.03;72.97;;;;;;;4.15;64.99;100660.69;115474;1196;103003;-79
2021/03/26 01:03:52;;;;;;;142.30;75.70;;;;;;;4.13;64.99;100669.27;115462;1196;103113;-78
2021/03/26 01:06:20;;;;;;;138.53;74.33;;;;;;;4.11;65.60;100663.25;115426;1197;103079;-79
2021/03/26 01:08:48;;;;;;;142.67;74.27;;;;;;;4.10;65.42;100658.94;115418;1199;103063;-79
2021/03/26 01:11:19;;;;;;;137.57;73.37;;;;;;;4.08;65.37;100656.36;115339;1198;103094;-78
2021/03/26 01:13:47;;;;;;;138.60;72.45;;;;;;;4.06;65.29;100655.51;115334;1200;103200;-78
2021/03/26 01:16:17;;;;;;;139.93;72.97;;;;;;;4.05;65.44;100653.78;115326;1199;102528;-78
2021/03/26 01:18:46;;;;;;;136.80;70.50;;;;;;;4.05;65.36;100650.34;115353;1198;103088;-77
2021/03/26 01:21:24;;;;;;;134.00;71.05;;;;;;;4.03;65.32;100652.92;115565;1199;103057;-78
2021/03/26 01:23:51;;;;;;;;;;;;;;;4.03;65.72;100655.51;115366;1205;103059;-78
2021/03/26 01:26:18;;;;;;;;;;;;;;;4.02;65.38;100655.52;115322;1205;103453;-79
2021/03/26 01:29:01;;;;;;;137.50;70.70;;;;;;;4.00;65.60;100654.66;115355;1200;103075;-77
2021/03/26 01:31:32;;;;;;;139.40;74.70;;;;;;;3.99;65.93;100655.52;115369;1199;103057;-78
2021/03/26 01:34:04;;;;;;;141.93;73.00;;;;;;;3.98;65.88;100658.95;115530;1197;103194;-78
2021/03/26 01:36:36;;;;;;;138.73;73.23;;;;;;;3.97;65.96;100650.35;115521;1196;103006;-78
2021/03/26 01:39:05;;;;;;;137.87;71.40;;;;;;;3.97;66.16;100652.94;115558;1197;103152;-79
2021/03/26 01:41:41;;;;;;;139.77;73.07;;;;;;;3.97;65.73;100652.08;115609;1196;103121;-79
2021/03/26 01:44:16;;;;;;;135.43;69.83;;;;;;;3.98;65.75;100653.80;115329;1199;103140;-78
2021/03/26 01:46:46;;;;;;;136.53;70.90;;;;;;;3.97;65.70;100652.94;115336;1197;103082;-78
2021/03/26 01:49:14;;;;;;;130.90;68.07;;;;;;;3.96;65.81;100651.22;115350;1200;103036;-79
2021/03/26 01:51:46;;;;;;;138.47;71.17;;;;;;;3.98;65.81;100658.95;115315;1199;103038;-79
2021/03/26 01:54:18;;;;;;;133.93;69.40;;;;;;;3.99;65.68;100664.11;115377;1198;103107;-78
2021/03/26 01:56:46;;;;;;;127.77;67.07;;;;;;;4.02;65.77;100663.25;115372;1199;102365;-78
2021/03/26 01:59:22;;;;;;;138.70;70.73;;;;;;;4.03;65.86;100665.83;115284;1200;102983;-78
2021/03/26 02:01:58;;;;;;;138.27;69.73;;;;;;;4.04;65.70;100664.11;115423;1200;103114;-79
2021/03/26 02:04:31;;;;;;;;;;;;;;;4.03;65.75;100668.41;115354;1204;103054;-79
2021/03/26 02:07:15;;;;;;;127.67;63.93;;;;;;;4.04;65.61;100674.44;115400;1198;103059;-79
2021/03/26 02:09:44;;;;;;;127.17;67.33;;;;;;;4.06;65.66;100673.58;115420;1200;104013;-79
2021/03/26 02:12:28;;;;;;;131.10;66.80;;;;;;;4.09;65.66;100670.98;115373;1196;103576;-78
2021/03/26 02:15:24;;;;;;;124.50;65.53;;;;;;;4.12;65.40;100673.57;115391;1196;103002;-79
2021/03/26 02:17:51;;;;;;;129.93;67.47;;;;;;;4.16;65.40;100672.73;115428;1199;103229;-79
2021/03/26 02:20:26;;;;;;;126.27;66.97;;;;;;;4.18;65.31;100673.59;115356;1196;103140;-79
2021/03/26 02:22:57;;;;;;;132.67;68.43;;;;;;;4.19;65.33;100677.90;115365;1200;103036;-79
2021/03/26 02:25:26;;;;;;;132.00;66.27;;;;;;;4.18;65.43;100665.85;115537;1195;102983;-79
2021/03/26 02:27:54;;;;;;;136.53;69.33;;;;;;;4.18;65.27;100663.27;115365;1199;103036;-79
2021/03/26 02:30:27;;;;;;;132.63;67.13;;;;;;;4.21;65.30;100675.31;115492;1196;103121;-79
2021/03/26 02:32:55;;;;;;;130.20;66.13;;;;;;;4.15;65.27;100665.85;115369;1200;103803;-78
2021/03/26 02:35:28;;;;;;;133.50;67.37;;;;;;;4.13;65.35;100662.41;115390;1198;103254;-78
2021/03/26 02:38:23;;;;;;;124.60;63.90;;;;;;;4.15;65.35;100673.59;115404;1199;103118;-79
2021/03/26 02:40:51;;;;;;;130.17;68.27;;;;;;;4.14;65.20;100668.44;115398;1199;103091;-79
2021/03/26 02:43:38;;;;;;;121.13;63.83;;;;;;;4.13;65.13;100669.27;115383;1196;103156;-78
2021/03/26 02:46:16;;;;;;;131.73;67.35;;;;;;;4.11;65.30;100661.52;115644;1199;103024;-78
2021/03/26 02:49:19;;;;;;;131.70;68.70;;;;;;;4.13;65.24;100669.27;115383;1200;103037;-78
2021/03/26 02:52:11;;;;;;;134.07;67.30;;;;;;;4.15;65.50;100670.16;115525;1198;103207;-78
2021/03/26 02:54:47;;;;;;;144.77;72.97;;;;;;;4.16;65.23;100662.41;115375;1200;102912;-78
2021/03/26 02:57:21;;;;;;;136.28;70.68;;;;;;;4.17;65.44;100676.17;115308;1199;102895;-79
2021/03/26 03:00:01;;;;;;;134.87;67.80;;;;;;;4.13;65.35;100672.73;115372;1200;103549;-78
2021/03/26 03:02:30;;;;;;;135.80;70.07;;;;;;;4.10;65.61;100675.29;115484;1196;103102;-78
2021/03/26 03:05:26;;;;;;;142.90;73.40;;;;;;;4.10;65.62;100661.53;115364;1199;103012;-78
2021/03/26 03:08:09;;;;;;;136.33;72.47;;;;;;;4.08;65.76;100669.27;115349;1199;103035;-79
2021/03/26 03:11:02;;;;;;;139.65;71.45;;;;;;;4.06;65.82;100668.41;115447;1196;103092;-78
2021/03/26 03:13:48;;;;;;;138.70;71.80;;;;;;;4.05;65.99;100666.69;115415;1199;104199;-78
2021/03/26 03:16:27;;;;;;;144.75;73.40;;;;;;;4.03;65.72;100665.83;115434;1197;103104;-77
2021/03/26 03:19:24;;;;;;;141.85;73.40;;;;;;;4.01;65.91;100664.97;115433;1198;103171;-78
2021/03/26 03:22:00;;;;;;;135.65;73.03;;;;;;;4.00;65.89;100667.55;115380;1199;103133;-78
2021/03/26 03:24:36;;;;;;;140.13;73.27;;;;;;;3.99;66.00;100664.11;115534;1198;103024;-79
2021/03/26 03:27:37;;;;;;;146.13;74.23;;;;;;;3.97;66.01;100663.26;115426;1197;103011;-78
2021/03/26 03:30:24;;;;;;;149.70;74.40;;;;;;;3.96;65.96;100658.09;115364;1196;103024;-79
2021/03/26 03:33:18;;;;;;;149.93;74.43;;;;;;;3.93;66.02;100654.63;115414;1199;103870;-78
2021/03/26 03:35:59;;;;;;;143.87;73.87;;;;;;;3.92;66.27;100659.78;115333;1199;103091;-78
2021/03/26 03:39:00;;;;;;;140.35;72.88;;;;;;;3.94;66.31;100665.80;115330;1199;103050;-77
2021/03/26 03:42:30;;;;;;;148.07;73.30;;;;;;;3.92;66.47;100659.78;115408;1199;103095;-78
2021/03/26 03:45:13;;;;;;;143.37;74.37;;;;;;;3.91;66.36;100658.92;115344;1200;102464;-78
2021/03/26 03:48:01;;;;;;;151.03;76.60;;;;;;;3.90;66.49;100657.20;115372;1197;102886;-79
2021/03/26 03:50:41;;;;;;;145.73;74.20;;;;;;;3.89;66.41;100668.38;115377;1199;102980;-78
2021/03/26 03:53:35;;;;;;;127.50;67.53;;;;;;;3.87;66.37;100676.98;115425;1196;103194;-79
2021/03/26 03:56:45;;;;;;;132.23;68.57;;;;;;;3.89;66.45;100677.84;115348;1199;103008;-78
2021/03/26 03:59:38;;;;;;;138.03;71.70;;;;;;;3.92;66.48;100670.97;115455;1196;102367;-78
2021/03/26 04:02:18;;;;;;;136.13;70.30;;;;;;;3.96;66.45;100673.58;115617;1196;103100;-79
2021/03/26 04:05:00;;;;;;;136.90;68.38;;;;;;;3.96;66.52;100679.60;115423;1197;103081;-78
2021/03/26 04:07:37;;;;;;;134.90;69.95;;;;;;;3.92;66.20;100677.84;115419;1196;103015;-78
2021/03/26 04:10:11;;;;;;;141.08;73.03;;;;;;;3.92;66.51;100677.84;115444;1196;103139;-78
2021/03/26 04:12:41;;;;;;;136.37;71.67;;;;;;;3.88;66.12;100676.13;115293;1196;103024;-79
2021/03/26 04:15:22;;;;;;;137.98;70.85;;;;;;;3.87;66.36;100687.31;115320;1198;103565;-79
2021/03/26 04:18:26;;;;;;;136.80;70.20;;;;;;;3.85;66.38;100684.73;115325;1197;103226;-77
2021/03/26 04:21:26;;;;;;;151.30;76.60;;;;;;;3.84;66.50;100685.59;115296;1199;104121;-78
2021/03/26 04:24:24;;;;;;;151.77;76.07;;;;;;;3.83;66.46;100686.45;115382;1199;103072;-78
2021/03/26 04:27:25;;;;;;;153.43;75.60;;;;;;;3.81;66.63;100682.14;115486;1199;103082;-78
2021/03/26 04:30:08;;;;;;;148.23;76.57;;;;;;;3.79;66.47;100683.87;115372;1199;103047;-77
2021/03/26 04:32:45;;;;;;;140.63;74.80;;;;;;;3.76;66.80;100678.67;115302;1198;103065;-77
2021/03/26 04:35:15;;;;;;;146.25;74.25;;;;;;;3.73;66.62;100684.69;115366;1196;103019;-77
2021/03/26 04:38:03;;;;;;;145.87;72.73;;;;;;;3.71;66.51;100682.97;115370;1196;103063;-78
2021/03/26 04:40:35;;;;;;;156.40;82.20;;;;;;;3.70;67.35;100683.83;115316;1197;103005;-78
2021/03/26 04:43:27;;;;;;;153.97;75.87;;;;;;;3.67;67.02;100686.41;115518;1199;103066;-78
2021/03/26 04:46:08;;;;;;;151.17;77.00;;;;;;;3.62;67.00;100686.39;115312;1199;103137;-79
2021/03/26 04:49:06;;;;;;;150.30;74.27;;;;;;;3.58;67.25;100689.80;115351;1197;103014;-78
2021/03/26 04:51:49;;;;;;;148.40;73.90;;;;;;;3.52;67.08;100684.63;115486;1196;103115;-78
2021/03/26 04:54:44;;;;;;;150.40;76.03;;;;;;;3.52;67.15;100685.48;115570;1198;103259;-78
2021/03/26 04:58:06;;;;;;;156.97;76.53;;;;;;;3.54;67.29;100696.66;115405;1196;103142;-78
2021/03/26 05:01:16;;;;;;;147.30;73.60;;;;;;;3.54;67.30;100696.66;115358;1199;102986;-78
2021/03/26 05:04:06;;;;;;;148.80;75.80;;;;;;;3.56;67.46;100700.11;115276;1198;103035;-77
2021/03/26 05:06:39;;;;;;;156.00;79.93;;;;;;;3.58;67.70;100694.95;115381;1197;103022;-78
2021/03/26 05:09:21;;;;;;;160.23;80.30;;;;;;;3.58;67.90;100694.95;115263;1199;102982;-78
2021/03/26 05:12:22;;;;;;;155.03;75.63;;;;;;;3.58;67.67;100703.55;115425;1197;103162;-78
2021/03/26 05:15:27;;;;;;;146.77;74.73;;;;;;;3.60;67.69;100706.16;115529;1199;102991;-78
2021/03/26 05:18:15;;;;;;;143.37;75.53;;;;;;;3.62;67.62;100696.71;115297;1197;103124;-77
2021/03/26 05:20:53;;;;;;;143.90;75.87;;;;;;;3.66;67.69;100702.73;115337;1200;100604;-79
2021/03/26 05:23:33;;;;;;;158.40;78.50;;;;;;;3.68;67.61;100711.34;115376;1199;104682;-78
2021/03/26 05:26:20;;;;;;;147.93;76.97;;;;;;;3.69;67.78;100716.50;115309;1197;103190;-77
2021/03/26 05:29:16;;;;;;;148.93;74.90;;;;;;;3.73;67.67;100714.78;115428;1199;103024;-77
2021/03/26 05:32:12;;;;;;;152.83;78.27;;;;;;;3.77;67.69;100716.51;115302;1197;102992;-78
2021/03/26 05:35:07;;;;;;;147.93;76.33;;;;;;;3.83;67.82;100719.13;115279;1199;102995;-77
2021/03/26 05:38:01;;;;;;;153.60;79.50;;;;;;;3.85;67.56;100719.99;115459;1199;103049;-78
2021/03/26 05:41:34;;;;;;;147.33;74.80;;;;;;;3.87;67.58;100719.13;115451;1199;103110;-77
2021/03/26 05:44:43;;;;;;;158.37;78.40;;;;;;;3.89;67.75;100717.41;115536;1196;106214;-77
2021/03/26 05:47:30;;;;;;;142.03;74.30;;;;;;;3.92;67.55;100721.72;115583;1196;103615;-78
2021/03/26 05:50:22;;;;;;;146.90;76.57;;;;;;;3.99;67.50;100727.77;115370;1198;103136;-78
2021/03/26 05:53:20;;;;;;;155.93;75.57;;;;;;;4.04;67.64;100736.38;115295;1196;103111;-78
2021/03/26 05:56:27;;;;;;;152.57;76.73;;;;;;;4.07;67.70;100732.08;115527;1196;103101;-78
2021/03/26 05:59:30;;;;;;;156.00;79.40;;;;;;;4.10;67.43;100733.80;115314;1199;102870;-79
2021/03/26 06:02:26;;;;;;;153.77;77.70;;;;;;;4.12;67.63;100737.24;115336;1196;103066;-78
2021/03/26 06:05:18;;;;;;;151.40;80.33;;;;;;;4.13;67.41;100732.11;115306;1196;103102;-78
2021/03/26 06:08:48;;;;;;;154.13;79.10;;;;;;;4.20;67.38;100730.39;115357;1196;103101;-77
2021/03/26 06:11:53;;;;;;;149.20;76.30;;;;;;;4.25;67.51;100736.41;115383;1197;103212;-78
2021/03/26 06:15:20;;;;;;;163.00;79.97;;;;;;;4.33;67.20;100734.72;115132;1201;103024;-77
2021/03/26 06:18:21;;;;;;;151.23;78.13;;;;;;;4.39;67.22;100742.46;115448;1197;103018;-77
2021/03/26 06:21:24;;;;;;;160.00;78.70;;;;;;;4.45;67.27;100741.59;115260;1197;103175;-78
2021/03/26 06:24:40;;;;;;;149.63;75.67;;;;;;;4.50;67.08;100738.18;115305;1199;103280;-78
2021/03/26 06:27:33;;;;;;;148.83;74.27;;;;;;;4.57;67.08;100746.78;115285;1199;102928;-78
2021/03/26 06:30:26;;;;;;;140.13;72.93;;;;;;;4.64;66.80;100745.91;115321;1199;103213;-77
2021/03/26 06:33:37;;;;;;;144.80;73.07;;;;;;;4.74;66.66;100751.95;115564;1199;104313;-79
2021/03/26 06:36:32;;;;;;;139.03;72.50;;;;;;;4.82;66.78;100757.95;115328;1199;103198;-78
2021/03/26 06:39:09;;;;;;;133.90;69.90;;;;;;;4.94;66.62;100757.96;115325;1199;103177;-78
2021/03/26 06:41:58;;;;;;;139.35;73.90;;;;;;;5.04;66.32;100761.41;115257;1198;103193;-78
2021/03/26 06:44:54;;;;;;;154.07;77.03;;;;;;;5.14;66.38;100757.93;115336;1199;103232;-78
2021/03/26 06:48:00;;;;;;;146.13;75.57;;;;;;;5.27;66.06;100757.05;115302;1200;103150;-78
2021/03/26 06:50:44;;;;;;;142.20;74.40;;;;;;;5.43;66.20;100756.14;115290;1200;103006;-77
2021/03/26 06:53:32;;;;;;;144.25;75.45;;;;;;;5.58;65.83;100762.14;115311;1199;103806;-78
2021/03/26 06:56:18;;;;;;;146.60;76.40;;;;;;;5.70;65.39;100770.69;115520;1199;103191;-78
2021/03/26 06:58:54;;;;;;;148.90;74.53;;;;;;;5.84;65.29;100762.88;115370;1199;103182;-77
2021/03/26 07:01:46;;;;;;;145.80;75.33;;;;;;;5.98;64.77;100766.30;115302;1198;103092;-76
2021/03/26 07:04:20;;;;;;;142.83;74.83;;;;;;;6.15;64.93;100766.21;115584;1198;102973;-78
2021/03/26 07:07:00;;;;;;;144.13;76.57;;;;;;;6.24;64.15;100766.14;115609;1199;103044;-78
2021/03/26 07:09:36;;;;;;;163.67;77.30;;;;;;;6.34;64.04;100769.55;115297;1199;103088;-78
2021/03/26 07:12:06;;;;;;;144.90;74.50;;;;;;;6.47;63.35;100772.92;115308;1200;103040;-77
2021/03/26 07:15:12;;;;;;;144.13;73.87;;;;;;;6.61;63.52;100769.34;115276;1199;104014;-78
2021/03/26 07:18:13;;;;;;;150.40;80.13;;;;;;;6.73;62.88;100767.53;115292;1198;103047;-79
2021/03/26 07:21:11;;;;;;;143.67;78.40;;;;;;;6.83;62.72;100764.00;115378;1199;103103;-78
2021/03/26 07:23:50;;;;;;;;;;;;;;;6.93;62.70;100763.03;115524;1204;103075;-78
2021/03/26 07:26:24;;;;;;;134.80;73.30;;;;;;;7.02;62.41;100762.11;115286;1198;102989;-78
2021/03/26 07:29:28;;;;;;;143.97;74.93;;;;;;;7.12;62.15;100761.98;115473;1196;103085;-78
2021/03/26 07:32:23;;;;;;;138.17;75.50;;;;;;;7.21;61.67;100763.64;115393;1196;103126;-78
2021/03/26 07:35:05;;;;;;;145.90;76.60;;;;;;;7.30;61.97;100770.45;115335;1199;103095;-78
2021/03/26 07:38:11;;;;;;;141.43;78.10;;;;;;;7.35;61.33;100763.47;115559;1198;103159;-79
2021/03/26 07:41:04;;;;;;;136.13;74.47;;;;;;;7.36;61.51;100760.00;115399;1196;103386;-79
2021/03/26 07:43:59;;;;;;;149.83;77.70;;;;;;;7.45;61.11;100771.16;115427;1198;103120;-78
2021/03/26 07:46:30;;;;;;;137.73;76.17;;;;;;;7.48;60.61;100765.92;115358;1197;102998;-79
2021/03/26 07:49:35;;;;;;;131.97;76.47;;;;;;;7.49;60.24;100771.98;115601;1199;103076;-79
2021/03/26 07:52:11;;;;;;;133.83;73.63;;;;;;;7.55;60.67;100766.73;115579;1196;103535;-78
2021/03/26 07:54:57;;;;;;;122.77;72.87;;;;;;;7.64;60.44;100769.21;115375;1196;103037;-78
2021/03/26 07:57:48;;;;;;;135.60;76.43;;;;;;;7.77;60.22;100769.93;115389;1197;103544;-79
2021/03/26 08:00:57;;;;;;;132.63;73.97;;;;;;;7.92;60.26;100768.88;115619;1198;103105;-79
2021/03/26 08:03:52;;;;;;;136.10;74.10;;;;;;;8.07;59.39;100766.91;115363;1197;103216;-78
2021/03/26 08:06:39;;;;;;;138.47;75.90;;;;;;;8.26;59.36;100771.86;115592;1196;103063;-79
2021/03/26 08:09:24;;;;;;;125.98;73.40;;;;;;;8.45;58.90;100776.83;115633;1197;103117;-77
2021/03/26 08:11:57;;;;;;;133.70;73.57;;;;;;;8.74;58.47;100772.89;115571;1196;103073;-78
2021/03/26 08:14:39;;;;;;;129.27;74.33;;;;;;;9.06;57.96;100785.37;115492;1196;103435;-78
2021/03/26 08:17:14;;;;;;;126.70;73.80;;;;;;;9.34;57.31;100777.94;115368;1197;103015;-79
2021/03/26 08:20:02;;;;;;;119.40;72.57;;;;;;;9.71;57.43;100783.30;115413;1199;103539;-80
2021/03/26 08:22:46;;;;;;;130.07;73.77;;;;;;;10.01;55.60;100776.57;115597;1199;102887;-79
2021/03/26 08:25:29;;;;;;;122.73;72.27;;;;;;;10.23;56.13;100782.20;115364;1199;103221;-79
2021/03/26 08:28:21;;;;;;;135.45;74.95;;;;;;;10.61;55.16;100783.95;115621;1196;103036;-79
2021/03/26 08:30:54;;;;;;;125.27;73.63;;;;;;;10.83;54.64;100777.32;115562;1199;102996;-79
2021/03/26 08:34:04;;;;;;;128.00;73.55;;;;;;;10.93;53.77;100785.76;115627;1197;103127;-79
2021/03/26 08:36:52;;;;;;;121.77;71.40;;;;;;;10.98;53.41;100780.45;115392;1196;102979;-79
2021/03/26 08:39:45;;;;;;;127.70;73.97;;;;;;;10.90;52.11;100784.09;115607;1196;103032;-79
2021/03/26 08:42:33;;;;;;;120.85;72.65;;;;;;;10.83;52.97;100779.93;115300;1199;103124;-79
2021/03/26 08:45:12;;;;;;;117.83;70.00;;;;;;;10.92;52.18;100793.63;115383;1199;103098;-79
2021/03/26 08:47:58;;;;;;;120.90;71.97;;;;;;;10.98;52.39;100793.50;115546;1199;103072;-80
2021/03/26 08:50:43;;;;;;;122.00;69.23;;;;;;;11.32;52.60;100803.94;115558;1199;102864;-80
2021/03/26 08:53:44;;;;;;;111.87;68.13;;;;;;;12.46;51.70;100797.20;115358;1199;103513;-78
2021/03/26 08:56:40;;;;;;;109.27;66.27;;;;;;;13.89;50.90;100787.08;115354;1198;103008;-80
2021/03/26 08:59:19;;;;;;;104.70;65.23;;;;;;;15.13;48.30;100790.06;115628;1199;103014;-79
2021/03/26 09:02:00;;;;;;;101.40;64.37;;;;;;;15.94;46.67;100782.11;115426;1199;103152;-79
2021/03/26 09:04:56;;;;;;;95.73;61.10;;;;;;;16.72;44.75;100781.09;115422;1197;103121;-81
2021/03/26 09:07:23;;;;;;;95.50;62.75;;;;;;;17.31;44.57;100777.22;115361;1200;103172;-78
2021/03/26 09:10:09;;;;;;;95.73;64.07;;;;;;;17.63;41.33;100788.73;115283;1198;102989;-79
2021/03/26 09:12:47;;;;;;;89.57;59.63;;;;;;;17.93;42.48;100780.98;115499;1196;102999;-76
2021/03/26 09:15:27;;;;;;;86.13;58.77;;;;;;;18.39;42.49;100774.03;115308;1196;103022;-78
2021/03/26 09:18:11;;;;;;;85.87;60.13;;;;;;;18.77;41.15;100784.24;115585;1196;103031;-79
2021/03/26 09:21:14;;;;;;;90.63;58.03;;;;;;;18.91;40.56;100776.38;115288;1199;103150;-78
2021/03/26 09:24:03;;;;;;;82.23;59.20;;;;;;;18.99;39.81;100782.05;115305;1199;103024;-77
2021/03/26 09:26:52;;;;;;;88.30;61.27;;;;;;;19.10;39.01;100784.93;115314;1199;102390;-77
2021/03/26 09:29:50;;;;;;;88.85;60.60;;;;;;;19.32;38.05;100773.92;115284;1199;103118;-76
2021/03/26 09:32:23;;;;;;;87.95;61.33;;;;;;;19.29;36.71;100771.46;115507;1199;103059;-77
2021/03/26 09:35:04;;;;;;;87.10;63.43;;;;;;;19.16;35.75;100781.91;115307;1199;103538;-77
2021/03/26 09:37:47;;;;;;;91.43;62.63;;;;;;;19.14;36.59;100778.51;115293;1200;101559;-77
2021/03/26 09:40:45;;;;;;;90.20;63.63;;;;;;;19.11;34.89;100789.27;115271;1199;103011;-77
2021/03/26 09:43:32;;;;;;;91.08;60.60;;;;;;;18.87;35.47;100780.14;115341;1199;103012;-75
2021/03/26 09:45:59;;;;;;;89.63;61.33;;;;;;;18.86;36.25;100781.09;115281;1199;103162;-78
2021/03/26 09:48:55;;;;;;;89.80;61.37;;;;;;;18.81;35.59;100773.41;115424;1199;103114;-79
2021/03/26 09:51:23;;;;;;;79.47;57.80;;;;;;;18.66;35.82;100777.77;115354;1199;103018;-79
2021/03/26 09:53:55;;;;;;;91.23;61.03;;;;;;;18.59;35.15;100775.55;115390;1200;103030;-74
2021/03/26 09:56:36;;;;;;;84.50;57.07;;;;;;;18.56;35.85;100781.86;115305;1198;103025;-78
2021/03/26 09:59:24;;;;;;;88.37;58.57;;;;;;;18.51;33.75;100783.92;115646;1196;103398;-79
2021/03/26 10:02:06;;;;;;;85.33;59.50;;;;;;;18.32;34.72;100770.90;115294;1200;102996;-79
2021/03/26 10:04:53;;;;;;;81.37;56.13;;;;;;;18.15;35.44;100776.27;115413;1198;103012;-81
2021/03/26 10:07:34;;;;;;;77.87;54.07;;;;;;;18.01;35.31;100773.52;115640;1199;103016;-82
2021/03/26 10:13:01;;;;;;;79.10;54.57;;;;;;;17.84;34.07;100770.94;115753;1198;102970;-81
2021/03/26 10:15:39;;;;;;;82.00;54.25;;;;;;;17.73;35.70;100764.44;115796;1196;103050;-79
2021/03/26 10:18:19;;;;;;;75.87;52.70;;;;;;;17.92;34.76;100766.94;115679;1199;103037;-78
2021/03/26 10:21:04;;;;;;;74.00;52.10;;;;;;;18.01;35.88;100769.09;115547;1198;103162;-79
2021/03/26 10:23:35;;;;;;;69.83;51.37;;;;;;;17.99;34.20;100775.39;115540;1197;102934;-79
2021/03/26 10:26:11;;;;;;;77.23;53.00;;;;;;;17.94;34.39;100765.06;115595;1198;102989;-80
2021/03/26 10:28:38;;;;;;;83.83;51.40;;;;;;;17.95;35.26;100769.41;115683;1196;102197;-79
2021/03/26 10:31:19;;;;;;;67.73;45.83;;;;;;;18.08;36.28;100761.68;115819;1199;103011;-80
2021/03/26 10:33:56;;;;;;;67.85;47.75;;;;;;;18.41;34.69;100767.73;115574;1199;101698;-80
2021/03/26 10:36:31;;;;;;;62.60;44.90;;;;;;;18.17;34.71;100776.17;115588;1196;101943;-80
2021/03/26 10:39:10;;;;;;;63.47;46.27;;;;;;;17.73;34.51;100769.72;116078;1196;103133;-79
2021/03/26 10:41:47;;;;;;;65.53;46.50;;;;;;;17.36;34.72;100754.95;115984;1199;103082;-79
2021/03/26 10:45:02;;;;;;;68.50;46.60;;;;;;;17.11;35.25;100758.01;115966;1196;103103;-80
2021/03/26 10:47:53;;;;;;;62.80;43.70;;;;;;;16.80;35.95;100755.20;115485;1203;101818;-79
2021/03/26 10:50:45;;;;;;;62.67;43.50;;;;;;;16.45;36.18;100760.38;115257;1203;103209;-79
2021/03/26 10:53:17;;;;;;;68.20;44.87;;;;;;;16.18;36.63;100757.30;115308;1202;103068;-80
2021/03/26 10:55:51;;;;;;;70.20;48.30;;;;;;;15.89;36.36;100757.80;115210;1203;103030;-79
2021/03/26 10:58:40;;;;;;;68.90;46.80;;;;;;;15.67;37.07;100752.66;115203;1201;101539;-80
2021/03/26 11:01:15;;;;;;;74.93;48.47;;;;;;;15.50;37.26;100761.27;115301;1202;102114;-80
2021/03/26 11:03:44;;;;;;;72.20;49.50;;;;;;;15.35;37.38;100754.05;115207;1201;103127;-79
2021/03/26 11:06:32;;;;;;;72.50;47.75;;;;;;;15.36;37.40;100756.61;115347;1202;103041;-80
2021/03/26 11:09:15;;;;;;;66.57;44.87;;;;;;;15.46;37.90;100740.45;115195;1202;103190;-79
2021/03/26 11:12:27;;;;;;;60.80;43.87;;;;;;;15.59;38.47;100729.33;115115;1203;103218;-80
2021/03/26 11:15:26;;;;;;;69.05;46.20;;;;;;;15.66;37.18;100732.55;115178;1202;103171;-80
2021/03/26 11:18:28;;;;;;;71.30;46.35;;;;;;;15.44;37.36;100737.89;114898;1204;103066;-79
2021/03/26 11:20:58;;;;;;;68.70;45.70;;;;;;;15.25;37.59;100742.22;114921;1205;103056;-79
2021/03/26 11:23:28;;;;;;;64.87;44.13;;;;;;;15.13;38.35;100735.75;114986;1204;102865;-79
2021/03/26 11:26:07;;;;;;;67.83;45.47;;;;;;;15.05;38.49;100738.69;115346;1200;102289;-80
2021/03/26 11:28:57;;;;;;;64.83;42.10;;;;;;;14.95;38.71;100728.66;115189;1200;102986;-78
2021/03/26 11:31:52;;;;;;;62.00;38.75;;;;;;;14.85;39.04;100736.05;115257;1202;103069;-79
2021/03/26 11:34:47;;;;;;;56.40;39.50;;;;;;;14.77;38.88;100731.13;115229;1202;103529;-80
2021/03/26 11:37:28;;;;;;;64.70;41.20;;;;;;;14.72;39.70;100734.84;115319;1199;103008;-80
2021/03/26 11:40:26;;;;;;;63.30;41.83;;;;;;;14.69;39.79;100727.10;115353;1200;101856;-80
2021/03/26 11:43:12;;;;;;;56.50;38.13;;;;;;;14.68;39.31;100731.50;115318;1199;103040;-79
2021/03/26 11:45:55;;;;;;;61.85;42.80;;;;;;;14.53;39.38;100733.89;115290;1199;103316;-79
2021/03/26 11:48:44;;;;;;;63.57;43.37;;;;;;;14.40;39.96;100723.03;115275;1203;103130;-78
2021/03/26 11:51:38;;;;;;;67.43;43.77;;;;;;;14.32;39.91;100736.44;115319;1200;103296;-79
2021/03/26 11:54:24;;;;;;;67.80;43.40;;;;;;;14.22;40.03;100732.48;115298;1200;101368;-79
2021/03/26 11:57:01;;;;;;;61.40;42.27;;;;;;;14.15;40.25;100729.23;115453;1200;103076;-79
2021/03/26 11:59:54;;;;;;;62.40;42.47;;;;;;;14.07;40.20;100727.83;115410;1200;103156;-80
2021/03/26 12:02:27;;;;;;;62.30;43.80;;;;;;;14.07;40.76;100726.06;115371;1199;103034;-80
2021/03/26 12:05:04;;;;;;;68.03;43.63;;;;;;;14.12;40.58;100715.38;115533;1198;103139;-80
2021/03/26 12:08:11;;;;;;;61.43;42.33;;;;;;;14.11;40.44;100726.80;115459;1199;103113;-81
2021/03/26 12:10:43;;;;;;;64.40;43.27;;;;;;;13.93;40.06;100719.64;115451;1199;102976;-81
2021/03/26 12:13:25;;;;;;;65.00;43.17;;;;;;;13.82;40.61;100718.30;115471;1198;103168;-80